Time;durP1;ratioP1;P1;durP2;ratioP2;P2;SDS_P1;SDS_P2;PMS_P1;PMS_P2;Temp;Humidity;BMP_temperature;BMP_pressure;BME280_temperature;BME280_humidity;BME280_pressure;Samples;Min_cycle;Max_cycle;Signal;HPM_P1;HPM_P2
2023/08/25 00:00:40;;;;;;;2.90;2.08;;;21.50;99.90;;;;;;2496749;23;20095;-73
2023/08/25 00:01:40;;;;;;;5.32;2.17;;;21.50;99.90;;;;;;2496673;23;20011;-73
2023/08/25 00:02:41;;;;;;;3.70;2.15;;;21.50;99.90;;;;;;2494263;23;20038;-73
2023/08/25 00:03:42;;;;;;;5.93;2.20;;;21.40;99.90;;;;;;2496774;23;20011;-73
2023/08/25 00:04:43;;;;;;;3.90;2.20;;;21.40;99.90;;;;;;2495595;23;20019;-73
2023/08/25 00:05:43;;;;;;;4.35;2.70;;;21.40;99.90;;;;;;2497253;23;20010;-74
2023/08/25 00:06:44;;;;;;;5.80;2.60;;;21.40;99.90;;;;;;2495128;23;20660;-73
2023/08/25 00:07:44;;;;;;;4.88;2.35;;;21.40;99.90;;;;;;2496882;23;20034;-73
2023/08/25 00:08:46;;;;;;;5.63;2.28;;;21.40;99.90;;;;;;2484645;23;20011;-73
2023/08/25 00:09:46;;;;;;;3.38;2.30;;;21.40;99.90;;;;;;2484856;23;20425;-73
2023/08/25 00:10:48;;;;;;;4.82;2.17;;;21.30;99.90;;;;;;2496963;23;20322;-74
2023/08/25 00:11:48;;;;;;;4.18;2.20;;;21.30;99.90;;;;;;2495717;23;20083;-73
2023/08/25 00:12:49;;;;;;;2.65;1.70;;;21.30;99.90;;;;;;2495822;23;20018;-73
2023/08/25 00:13:50;;;;;;;4.07;2.08;;;21.20;99.90;;;;;;2496756;23;20003;-73
2023/08/25 00:14:50;;;;;;;2.63;2.13;;;21.30;99.90;;;;;;2497216;23;20004;-74
2023/08/25 00:15:51;;;;;;;5.47;2.40;;;21.30;99.90;;;;;;2497063;23;20416;-73
2023/08/25 00:16:51;;;;;;;3.33;1.83;;;21.20;99.90;;;;;;2490913;23;20003;-73
2023/08/25 00:17:54;;;;;;;4.50;2.10;;;21.20;99.90;;;;;;2495204;23;20050;-73
2023/08/25 00:18:55;;;;;;;3.28;1.80;;;21.20;99.90;;;;;;2496566;23;19999;-73
2023/08/25 00:19:55;;;;;;;3.58;1.83;;;21.30;99.90;;;;;;2496608;23;20010;-73
2023/08/25 00:20:56;;;;;;;3.55;2.00;;;21.20;99.90;;;;;;2496823;23;20336;-73
2023/08/25 00:21:57;;;;;;;4.28;2.10;;;21.20;99.90;;;;;;2496431;23;20000;-73
2023/08/25 00:22:57;;;;;;;3.13;1.75;;;21.20;99.90;;;;;;2496526;23;20027;-73
2023/08/25 00:23:58;;;;;;;2.25;2.03;;;21.20;99.90;;;;;;2496951;23;20668;-73
2023/08/25 00:24:59;;;;;;;3.88;1.90;;;21.20;99.90;;;;;;2497172;23;20678;-73
2023/08/25 00:25:59;;;;;;;4.43;1.83;;;21.20;99.90;;;;;;2497564;23;20006;-73
2023/08/25 00:27:00;;;;;;;2.58;1.95;;;21.20;99.90;;;;;;2495377;23;20027;-73
2023/08/25 00:28:01;;;;;;;5.30;2.60;;;21.20;99.90;;;;;;2497283;23;20074;-73
2023/08/25 00:29:02;;;;;;;3.28;1.88;;;21.20;99.90;;;;;;2496573;23;20000;-73
2023/08/25 00:30:04;;;;;;;3.40;2.13;;;21.20;99.90;;;;;;2497211;23;20376;-73
2023/08/25 00:31:04;;;;;;;3.33;2.00;;;21.20;99.90;;;;;;2496013;23;20014;-73
2023/08/25 00:32:05;;;;;;;4.40;2.30;;;21.20;99.90;;;;;;2483652;23;20678;-73
2023/08/25 00:33:06;;;;;;;6.00;2.05;;;21.20;99.90;;;;;;2484437;23;20000;-73
2023/08/25 00:34:06;;;;;;;4.45;2.47;;;21.20;99.90;;;;;;2496571;23;20305;-73
2023/08/25 00:35:07;;;;;;;3.58;2.00;;;21.20;99.90;;;;;;2497010;23;20051;-73
2023/08/25 00:36:08;;;;;;;2.65;2.08;;;21.20;99.90;;;;;;2496096;23;20014;-73
2023/08/25 00:37:08;;;;;;;4.15;2.03;;;21.30;99.90;;;;;;2496065;23;20014;-73
2023/08/25 00:38:09;;;;;;;2.67;1.60;;;21.20;99.90;;;;;;2496773;23;20023;-73
2023/08/25 00:39:10;;;;;;;5.85;2.08;;;21.30;99.90;;;;;;2495862;23;20452;-73
2023/08/25 00:40:10;;;;;;;3.45;1.60;;;21.20;99.90;;;;;;2496610;23;20003;-73
2023/08/25 00:41:11;;;;;;;3.00;1.77;;;21.20;99.90;;;;;;2497014;23;20003;-73
2023/08/25 00:42:12;;;;;;;3.05;1.88;;;21.20;99.90;;;;;;2496453;23;20026;-73
2023/08/25 00:43:12;;;;;;;4.15;1.80;;;21.20;99.90;;;;;;2497187;23;20317;-73
2023/08/25 00:44:13;;;;;;;5.00;2.25;;;21.20;99.90;;;;;;2496905;23;20443;-73
2023/08/25 00:45:13;;;;;;;2.88;1.85;;;21.20;99.90;;;;;;2497112;23;20040;-73
2023/08/25 00:46:16;;;;;;;2.63;1.63;;;21.20;99.90;;;;;;2484485;23;20026;-73
2023/08/25 00:47:19;;;;;;;2.83;1.60;;;21.20;99.90;;;;;;2484306;23;20059;-73
2023/08/25 00:48:19;;;;;;;2.67;1.65;;;21.20;99.90;;;;;;2497178;23;20078;-73
2023/08/25 00:49:21;;;;;;;3.47;2.00;;;21.20;99.90;;;;;;2497052;23;20007;-73
2023/08/25 00:50:21;;;;;;;3.13;1.85;;;21.20;99.90;;;;;;2497342;23;20421;-73
2023/08/25 00:51:23;;;;;;;1.70;1.60;;;21.20;99.90;;;;;;2496162;23;20360;-73
2023/08/25 00:52:24;;;;;;;3.22;1.83;;;21.20;99.90;;;;;;2496019;23;20003;-73
2023/08/25 00:53:26;;;;;;;2.47;2.10;;;21.20;99.90;;;;;;2497065;23;20071;-73
2023/08/25 00:54:28;;;;;;;2.03;1.58;;;21.20;99.90;;;;;;2497507;23;20004;-73
2023/08/25 00:55:30;;;;;;;4.97;1.58;;;21.20;99.90;;;;;;2496813;23;20008;-73
2023/08/25 00:56:31;;;;;;;5.03;1.88;;;21.20;99.90;;;;;;2497011;23;20040;-73
2023/08/25 00:57:32;;;;;;;2.38;1.60;;;21.10;99.90;;;;;;2497313;23;20004;-73
2023/08/25 00:58:32;;;;;;;6.88;2.00;;;21.10;99.90;;;;;;2497236;23;20038;-73
2023/08/25 00:59:34;;;;;;;4.00;2.28;;;21.10;99.90;;;;;;2496701;23;20015;-73
2023/08/25 01:00:35;;;;;;;3.20;1.67;;;21.10;99.90;;;;;;2497124;23;20086;-73
2023/08/25 01:01:36;;;;;;;3.75;2.25;;;21.10;99.90;;;;;;2496997;23;20063;-73
2023/08/25 01:02:37;;;;;;;2.42;1.98;;;21.10;99.90;;;;;;2495154;23;20093;-73
2023/08/25 01:03:38;;;;;;;6.70;1.88;;;21.10;99.90;;;;;;2496705;23;20053;-73
2023/08/25 01:04:39;;;;;;;4.50;2.22;;;21.10;99.90;;;;;;2497209;23;20016;-73
2023/08/25 01:05:39;;;;;;;3.72;2.50;;;21.10;99.90;;;;;;2495392;23;20043;-73
2023/08/25 01:06:40;;;;;;;3.50;1.50;;;21.10;99.90;;;;;;2496453;23;20007;-73
2023/08/25 01:07:43;;;;;;;2.47;1.80;;;21.00;99.90;;;;;;2496020;23;20016;-73
2023/08/25 01:08:44;;;;;;;4.72;2.25;;;21.10;99.90;;;;;;2496410;23;20428;-73
2023/08/25 01:09:45;;;;;;;3.72;2.03;;;21.10;99.90;;;;;;2496686;23;20429;-73
2023/08/25 01:10:50;;;;;;;3.20;2.22;;;21.10;99.90;;;;;;2496325;23;20434;-73
2023/08/25 01:12:08;;;;;;;4.95;2.03;;;21.00;99.90;;;;;;2496081;23;20065;-73
2023/08/25 01:13:32;;;;;;;2.55;1.55;;;21.00;99.90;;;;;;2495768;23;20047;-73
2023/08/25 01:14:44;;;;;;;2.75;1.88;;;21.00;99.90;;;;;;2495758;23;19999;-73
2023/08/25 01:15:48;;;;;;;3.17;2.00;;;21.00;99.90;;;;;;2496333;23;20011;-73
2023/08/25 01:17:01;;;;;;;5.28;2.33;;;20.90;99.90;;;;;;2496419;23;20098;-73
2023/08/25 01:18:04;;;;;;;3.90;1.77;;;20.90;99.90;;;;;;2496020;23;19999;-73
2023/08/25 01:19:10;;;;;;;2.63;2.13;;;20.90;99.90;;;;;;2496256;23;19999;-73
2023/08/25 01:20:14;;;;;;;4.10;2.00;;;20.90;99.90;;;;;;2496362;23;20010;-73
2023/08/25 01:21:14;;;;;;;2.38;1.67;;;20.90;99.90;;;;;;2496372;23;20015;-73
2023/08/25 01:22:21;;;;;;;4.03;1.90;;;20.90;99.90;;;;;;2494978;23;20032;-73
2023/08/25 01:24:06;;;;;;;3.20;2.03;;;20.90;99.90;;;;;;2494813;23;20436;-73
2023/08/25 01:25:26;;;;;;;3.05;2.03;;;20.80;99.90;;;;;;2487201;23;20032;-73
2023/08/25 01:26:29;;;;;;;3.42;1.75;;;20.80;99.90;;;;;;2487968;23;20468;-73
2023/08/25 01:27:31;;;;;;;3.75;2.20;;;20.80;99.90;;;;;;2496354;23;20011;-73
2023/08/25 01:28:31;;;;;;;3.72;2.00;;;20.80;99.90;;;;;;2496745;23;20014;-73
2023/08/25 01:29:33;;;;;;;4.50;1.80;;;20.80;99.90;;;;;;2495948;23;20007;-73
2023/08/25 01:30:36;;;;;;;2.25;2.00;;;20.80;99.90;;;;;;2496339;23;20031;-73
2023/08/25 01:31:36;;;;;;;3.58;1.67;;;20.80;99.90;;;;;;2496573;23;20079;-73
2023/08/25 01:32:37;;;;;;;3.75;1.95;;;20.80;99.90;;;;;;2495260;23;20007;-73
2023/08/25 01:33:39;;;;;;;2.72;2.05;;;20.70;99.90;;;;;;2494638;23;20027;-73
2023/08/25 01:34:40;;;;;;;3.92;1.98;;;20.70;99.90;;;;;;2496010;23;20015;-73
2023/08/25 01:35:46;;;;;;;4.40;2.10;;;20.70;99.90;;;;;;2496149;23;20003;-73
2023/08/25 01:36:57;;;;;;;9.43;2.30;;;20.70;99.90;;;;;;2496561;23;20013;-73
2023/08/25 01:38:04;;;;;;;2.40;1.70;;;20.70;99.90;;;;;;2496220;23;19999;-73
2023/08/25 01:39:10;;;;;;;3.65;2.10;;;20.70;99.90;;;;;;2496431;23;19995;-73
2023/08/25 01:40:30;;;;;;;3.55;1.88;;;20.70;99.90;;;;;;2495853;23;20368;-73
2023/08/25 01:41:43;;;;;;;4.28;2.38;;;20.70;99.90;;;;;;2496273;23;20360;-73
2023/08/25 01:42:46;;;;;;;2.67;2.00;;;20.70;99.90;;;;;;2495567;23;20066;-73
2023/08/25 01:43:49;;;;;;;3.95;2.03;;;20.70;99.90;;;;;;2496160;23;20054;-73
2023/08/25 01:44:51;;;;;;;3.78;1.92;;;20.70;99.90;;;;;;2495405;23;19999;-73
2023/08/25 01:45:54;;;;;;;5.57;2.25;;;20.60;99.90;;;;;;2495048;23;20426;-73
2023/08/25 01:47:00;;;;;;;2.78;2.00;;;20.60;99.90;;;;;;2496137;23;20063;-73
2023/08/25 01:48:05;;;;;;;3.40;2.00;;;20.60;99.90;;;;;;2496341;23;20027;-73
2023/08/25 01:49:06;;;;;;;4.00;2.70;;;20.60;99.90;;;;;;2494875;23;20007;-73
2023/08/25 01:50:09;;;;;;;2.92;2.08;;;20.60;99.90;;;;;;2495276;23;20007;-73
2023/08/25 01:51:11;;;;;;;3.78;2.15;;;20.60;99.90;;;;;;2483896;23;20008;-73
2023/08/25 01:52:12;;;;;;;4.05;2.15;;;20.60;99.90;;;;;;2471613;23;20087;-73
2023/08/25 01:53:14;;;;;;;3.22;2.00;;;20.60;99.90;;;;;;2470957;23;20008;-73
2023/08/25 01:54:14;;;;;;;3.83;1.90;;;20.60;99.90;;;;;;2483775;23;20008;-73
2023/08/25 01:55:15;;;;;;;4.55;2.25;;;20.60;99.90;;;;;;2496449;23;20003;-73
2023/08/25 01:56:16;;;;;;;2.95;2.00;;;20.60;99.90;;;;;;2496156;23;20075;-73
2023/08/25 01:57:16;;;;;;;3.92;2.20;;;20.60;99.90;;;;;;2496718;23;20010;-73
2023/08/25 01:58:17;;;;;;;4.55;1.90;;;20.60;99.90;;;;;;2495997;23;20082;-73
2023/08/25 01:59:17;;;;;;;2.63;1.85;;;20.60;99.90;;;;;;2495449;23;20396;-73
2023/08/25 02:00:19;;;;;;;2.97;2.10;;;20.60;99.90;;;;;;2496001;23;20067;-73
2023/08/25 02:01:20;;;;;;;2.58;2.10;;;20.60;99.90;;;;;;2496293;23;20003;-73
2023/08/25 02:02:21;;;;;;;1.98;1.80;;;20.60;99.90;;;;;;2495519;23;20047;-73
2023/08/25 02:03:21;;;;;;;5.80;2.25;;;20.60;99.90;;;;;;2496066;23;20078;-73
2023/08/25 02:04:22;;;;;;;4.88;2.30;;;20.50;99.90;;;;;;2495333;23;20018;-73
2023/08/25 02:05:22;;;;;;;3.45;2.10;;;20.60;99.90;;;;;;2496684;23;20049;-73
2023/08/25 02:06:23;;;;;;;5.22;2.40;;;20.50;99.90;;;;;;2495988;23;20007;-73
2023/08/25 02:07:23;;;;;;;5.05;2.17;;;20.50;99.90;;;;;;2495868;23;20015;-73
2023/08/25 02:08:24;;;;;;;4.20;2.10;;;20.50;99.90;;;;;;2495959;23;20011;-73
2023/08/25 02:09:25;;;;;;;4.03;2.38;;;20.60;99.90;;;;;;2495728;23;20420;-73
2023/08/25 02:10:25;;;;;;;3.25;1.77;;;20.50;99.90;;;;;;2483112;23;20015;-73
2023/08/25 02:11:27;;;;;;;2.90;2.20;;;20.50;99.90;;;;;;2483454;23;20014;-73
2023/08/25 02:12:27;;;;;;;2.92;1.85;;;20.50;99.90;;;;;;2494867;23;20011;-73
2023/08/25 02:13:28;;;;;;;5.53;2.20;;;20.50;99.90;;;;;;2496572;23;20078;-73
2023/08/25 02:14:28;;;;;;;1.88;1.67;;;20.50;99.90;;;;;;2495126;23;20369;-73
2023/08/25 02:15:29;;;;;;;2.17;1.98;;;20.50;99.90;;;;;;2496523;23;20098;-73
2023/08/25 02:16:29;;;;;;;2.88;1.77;;;20.50;99.90;;;;;;2495622;23;20070;-73
2023/08/25 02:17:30;;;;;;;3.63;2.33;;;20.40;99.90;;;;;;2495227;23;20491;-73
2023/08/25 02:18:30;;;;;;;3.35;2.08;;;20.40;99.90;;;;;;2496281;23;20074;-73
2023/08/25 02:19:31;;;;;;;2.92;2.40;;;20.40;99.90;;;;;;2496168;23;20066;-73
2023/08/25 02:20:35;;;;;;;3.33;2.10;;;20.40;99.90;;;;;;2496570;23;20003;-73
2023/08/25 02:21:36;;;;;;;4.20;2.08;;;20.40;99.90;;;;;;2496238;23;20059;-73
2023/08/25 02:22:37;;;;;;;4.18;2.45;;;20.40;99.90;;;;;;2494493;23;20341;-73
2023/08/25 02:23:38;;;;;;;2.80;2.45;;;20.40;99.90;;;;;;2496474;23;20035;-73
2023/08/25 02:24:39;;;;;;;5.25;2.72;;;20.40;99.90;;;;;;2496345;23;20594;-73
2023/08/25 02:25:39;;;;;;;2.30;2.10;;;20.40;99.90;;;;;;2496084;23;20015;-73
2023/08/25 02:26:40;;;;;;;5.43;2.05;;;20.40;99.90;;;;;;2482105;23;20053;-73
2023/08/25 02:27:40;;;;;;;3.50;2.30;;;20.30;99.90;;;;;;2483570;23;20441;-73
2023/08/25 02:28:41;;;;;;;2.72;2.08;;;20.40;99.90;;;;;;2483394;23;20076;-73
2023/08/25 02:29:41;;;;;;;3.28;2.03;;;20.40;99.90;;;;;;2496537;23;20015;-73
2023/08/25 02:30:42;;;;;;;5.57;2.67;;;20.30;99.90;;;;;;2494781;23;20872;-73
2023/08/25 02:31:42;;;;;;;2.67;1.60;;;20.40;99.90;;;;;;2496295;23;20075;-73
2023/08/25 02:32:43;;;;;;;2.17;1.88;;;20.30;99.90;;;;;;2495219;23;20424;-73
2023/08/25 02:33:43;;;;;;;4.13;2.00;;;20.30;99.90;;;;;;2495987;23;20496;-73
2023/08/25 02:34:44;;;;;;;3.08;1.88;;;20.30;99.90;;;;;;2494727;23;20006;-73
2023/08/25 02:35:44;;;;;;;3.78;2.53;;;20.30;99.90;;;;;;2495776;23;20409;-73
2023/08/25 02:36:45;;;;;;;2.75;2.00;;;20.30;99.90;;;;;;2495787;23;20003;-73
2023/08/25 02:38:04;;;;;;;2.33;2.03;;;20.30;99.90;;;;;;2495852;23;20006;-73
2023/08/25 02:39:04;;;;;;;4.47;2.30;;;20.30;99.90;;;;;;2496253;23;20480;-73
2023/08/25 02:40:06;;;;;;;3.03;2.08;;;20.30;99.90;;;;;;2495834;23;20358;-73
2023/08/25 02:41:06;;;;;;;2.72;2.05;;;20.20;99.90;;;;;;2495485;23;20090;-73
2023/08/25 02:42:07;;;;;;;3.20;2.22;;;20.30;99.90;;;;;;2495711;23;20409;-73
2023/08/25 02:43:08;;;;;;;5.00;2.38;;;20.20;99.90;;;;;;2482886;23;20000;-73
2023/08/25 02:44:09;;;;;;;5.35;2.38;;;20.20;99.90;;;;;;2483840;23;20056;-73
2023/08/25 02:45:09;;;;;;;2.38;2.17;;;20.30;99.90;;;;;;2495695;23;20004;-73
2023/08/25 02:46:10;;;;;;;2.45;1.90;;;20.30;99.90;;;;;;2483502;23;20014;-73
2023/08/25 02:47:11;;;;;;;2.70;2.08;;;20.20;99.90;;;;;;2483803;23;20000;-73
2023/08/25 02:48:12;;;;;;;2.42;2.17;;;20.20;99.90;;;;;;2495809;23;19995;-73
2023/08/25 02:49:13;;;;;;;3.47;2.65;;;20.20;99.90;;;;;;2495422;23;20010;-73
2023/08/25 02:50:13;;;;;;;3.97;1.83;;;20.20;99.90;;;;;;2496505;23;20467;-73
2023/08/25 02:51:14;;;;;;;6.50;1.88;;;20.20;99.90;;;;;;2495853;23;20059;-73
2023/08/25 02:52:15;;;;;;;2.70;2.03;;;20.20;99.90;;;;;;2495099;23;20011;-73
2023/08/25 02:53:15;;;;;;;2.38;1.98;;;20.20;99.90;;;;;;2495692;23;20721;-73
2023/08/25 02:54:16;;;;;;;4.20;2.30;;;20.20;99.90;;;;;;2495907;23;20013;-73
2023/08/25 02:55:19;;;;;;;4.50;2.55;;;20.20;99.90;;;;;;2496387;23;20006;-73
2023/08/25 02:56:19;;;;;;;5.82;2.22;;;20.20;99.90;;;;;;2495628;23;20004;-73
2023/08/25 02:57:20;;;;;;;3.72;2.42;;;20.20;99.90;;;;;;2495879;23;20026;-73
2023/08/25 02:58:20;;;;;;;3.65;2.70;;;20.10;99.90;;;;;;2496571;23;20103;-73
2023/08/25 02:59:21;;;;;;;3.22;2.10;;;20.10;99.90;;;;;;2482979;23;20004;-73
2023/08/25 03:00:25;;;;;;;3.13;2.28;;;20.10;99.90;;;;;;2483726;23;20007;-73
2023/08/25 03:01:25;;;;;;;3.08;2.35;;;20.10;99.90;;;;;;2496197;23;20011;-73
2023/08/25 03:02:26;;;;;;;2.30;1.90;;;20.10;99.90;;;;;;2494022;23;20003;-73
2023/08/25 03:03:28;;;;;;;2.40;2.17;;;20.10;99.90;;;;;;2495963;23;20007;-73
2023/08/25 03:04:29;;;;;;;3.25;2.20;;;20.10;99.90;;;;;;2495682;23;20086;-73
2023/08/25 03:05:30;;;;;;;2.53;2.33;;;20.10;99.90;;;;;;2495770;23;20014;-73
2023/08/25 03:06:30;;;;;;;2.42;2.05;;;20.10;99.90;;;;;;2495996;23;20015;-73
2023/08/25 03:07:32;;;;;;;5.47;2.35;;;20.10;99.90;;;;;;2495600;23;20107;-73
2023/08/25 03:08:33;;;;;;;5.20;2.33;;;20.10;99.90;;;;;;2495250;23;20503;-73
2023/08/25 03:09:33;;;;;;;3.45;1.95;;;20.00;99.90;;;;;;2496281;23;20351;-73
2023/08/25 03:10:34;;;;;;;3.10;2.42;;;20.00;99.90;;;;;;2483166;23;20015;-73
2023/08/25 03:11:34;;;;;;;1.80;1.70;;;20.00;99.90;;;;;;2483446;23;20004;-73
2023/08/25 03:12:35;;;;;;;2.95;2.30;;;20.00;99.90;;;;;;2495235;23;20008;-73
2023/08/25 03:13:36;;;;;;;2.80;2.22;;;20.00;99.90;;;;;;2495863;23;19999;-73
2023/08/25 03:14:36;;;;;;;3.63;2.25;;;20.00;99.90;;;;;;2496033;23;20050;-73
2023/08/25 03:15:37;;;;;;;3.65;2.65;;;20.00;99.90;;;;;;2496074;23;20416;-73
2023/08/25 03:16:37;;;;;;;4.03;2.30;;;20.00;99.90;;;;;;2495632;23;20090;-73
2023/08/25 03:17:38;;;;;;;2.13;1.92;;;20.00;99.90;;;;;;2495030;23;20059;-73
2023/08/25 03:18:40;;;;;;;3.95;2.30;;;20.00;99.90;;;;;;2495516;23;20207;-73
2023/08/25 03:19:41;;;;;;;2.40;2.20;;;20.00;99.90;;;;;;2495629;23;20182;-73
2023/08/25 03:20:42;;;;;;;3.53;2.47;;;20.00;99.90;;;;;;2494344;23;20007;-73
2023/08/25 03:21:43;;;;;;;3.45;1.75;;;20.00;99.90;;;;;;2496460;23;20576;-73
2023/08/25 03:22:43;;;;;;;3.45;2.28;;;19.90;99.90;;;;;;2494139;23;20007;-73
2023/08/25 03:23:44;;;;;;;3.67;2.13;;;19.90;99.90;;;;;;2496125;23;20034;-73
2023/08/25 03:24:44;;;;;;;5.03;2.60;;;19.90;99.90;;;;;;2495534;23;20010;-73
2023/08/25 03:25:45;;;;;;;3.05;2.53;;;19.90;99.90;;;;;;2495892;23;20014;-73
2023/08/25 03:26:45;;;;;;;2.50;2.30;;;19.90;99.90;;;;;;2495918;23;20007;-73
2023/08/25 03:27:46;;;;;;;2.20;1.95;;;19.90;99.90;;;;;;2496008;23;20460;-73
2023/08/25 03:28:46;;;;;;;4.43;2.17;;;19.90;99.90;;;;;;2495282;23;20007;-73
2023/08/25 03:29:47;;;;;;;3.72;2.45;;;19.90;99.90;;;;;;2496211;23;20384;-73
2023/08/25 03:30:51;;;;;;;3.67;2.42;;;19.90;99.90;;;;;;2482183;23;20329;-73
2023/08/25 03:31:52;;;;;;;3.55;2.30;;;19.90;99.90;;;;;;2483774;23;20148;-73
2023/08/25 03:32:53;;;;;;;3.97;2.58;;;19.90;99.90;;;;;;2482239;23;20057;-73
2023/08/25 03:33:54;;;;;;;3.33;2.55;;;19.90;99.90;;;;;;2495915;23;20018;-73
2023/08/25 03:34:54;;;;;;;3.58;2.05;;;19.90;99.90;;;;;;2495121;23;20003;-73
2023/08/25 03:35:55;;;;;;;3.15;2.03;;;19.90;99.90;;;;;;2495791;23;20008;-73
2023/08/25 03:36:55;;;;;;;4.05;2.05;;;19.90;99.90;;;;;;2483171;23;20020;-73
2023/08/25 03:37:56;;;;;;;2.33;2.13;;;19.90;99.90;;;;;;2483143;23;20061;-73
2023/08/25 03:38:56;;;;;;;3.45;2.33;;;19.80;99.90;;;;;;2496245;23;20014;-73
2023/08/25 03:39:57;;;;;;;3.00;1.92;;;19.80;99.90;;;;;;2496091;23;20010;-73
2023/08/25 03:40:59;;;;;;;7.38;2.30;;;19.80;99.90;;;;;;2496275;23;20078;-73
2023/08/25 03:41:59;;;;;;;4.82;2.40;;;19.80;99.90;;;;;;2495221;23;20069;-73
2023/08/25 03:43:00;;;;;;;3.70;2.40;;;19.80;99.90;;;;;;2495237;23;20034;-73
2023/08/25 03:44:00;;;;;;;3.55;2.17;;;19.80;99.90;;;;;;2496694;23;20012;-73
2023/08/25 03:45:01;;;;;;;3.47;2.00;;;19.80;99.90;;;;;;2495818;23;20058;-73
2023/08/25 03:46:02;;;;;;;4.57;2.45;;;19.80;99.90;;;;;;2494913;23;20396;-73
2023/08/25 03:47:02;;;;;;;5.22;2.67;;;19.80;99.90;;;;;;2495838;23;20075;-73
2023/08/25 03:48:03;;;;;;;3.25;2.33;;;19.80;99.90;;;;;;2495767;23;20019;-73
2023/08/25 03:49:06;;;;;;;2.58;2.38;;;19.80;99.90;;;;;;2495807;23;20377;-73
2023/08/25 03:50:06;;;;;;;3.50;2.72;;;19.80;99.90;;;;;;2495797;23;19999;-73
2023/08/25 03:51:07;;;;;;;6.53;2.40;;;19.80;99.90;;;;;;2495437;23;20038;-73
2023/08/25 03:52:08;;;;;;;3.53;2.65;;;19.70;99.90;;;;;;2495633;23;20428;-73
2023/08/25 03:53:09;;;;;;;3.33;2.75;;;19.70;99.90;;;;;;2495191;23;20027;-73
2023/08/25 03:54:11;;;;;;;4.70;2.55;;;19.70;99.90;;;;;;2495968;23;19995;-73
2023/08/25 03:55:11;;;;;;;2.70;2.50;;;19.70;99.90;;;;;;2496384;23;20133;-73
2023/08/25 03:56:12;;;;;;;3.15;2.70;;;19.70;99.90;;;;;;2495936;23;20047;-73
2023/08/25 03:57:12;;;;;;;3.90;2.28;;;19.70;99.90;;;;;;2496253;23;20078;-73
2023/08/25 03:58:13;;;;;;;3.40;2.97;;;19.70;99.90;;;;;;2483528;23;20378;-73
2023/08/25 03:59:14;;;;;;;4.53;2.50;;;19.70;99.90;;;;;;2483165;23;20125;-73
2023/08/25 04:00:14;;;;;;;3.47;2.00;;;19.70;99.90;;;;;;2495973;23;20018;-73
2023/08/25 04:01:15;;;;;;;5.28;2.63;;;19.60;99.90;;;;;;2495128;23;20410;-73
2023/08/25 04:02:15;;;;;;;4.18;2.50;;;19.60;99.90;;;;;;2482688;23;20000;-73
2023/08/25 04:03:16;;;;;;;4.35;2.58;;;19.70;99.90;;;;;;2483571;23;20413;-73
2023/08/25 04:04:16;;;;;;;4.00;2.35;;;19.70;99.90;;;;;;2494500;23;20050;-73
2023/08/25 04:05:17;;;;;;;4.43;2.53;;;19.60;99.90;;;;;;2495718;23;20003;-73
2023/08/25 04:06:17;;;;;;;3.50;2.40;;;19.60;99.90;;;;;;2483287;23;20028;-73
2023/08/25 04:07:18;;;;;;;4.47;2.38;;;19.60;99.90;;;;;;2483204;23;20007;-73
2023/08/25 04:08:18;;;;;;;4.05;2.80;;;19.60;99.90;;;;;;2495758;23;20011;-73
2023/08/25 04:09:19;;;;;;;4.00;2.33;;;19.60;99.90;;;;;;2495941;23;20429;-73
2023/08/25 04:10:20;;;;;;;3.72;2.75;;;19.60;99.90;;;;;;2495542;23;20313;-73
2023/08/25 04:11:20;;;;;;;4.03;2.58;;;19.60;99.90;;;;;;2495877;23;20038;-73
2023/08/25 04:12:21;;;;;;;4.63;2.95;;;19.60;99.90;;;;;;2495024;23;20011;-73
2023/08/25 04:13:22;;;;;;;5.68;2.70;;;19.60;99.90;;;;;;2496129;23;19999;-73
2023/08/25 04:14:22;;;;;;;3.88;3.17;;;19.60;99.90;;;;;;2496081;23;20014;-73
2023/08/25 04:15:23;;;;;;;2.92;2.72;;;19.60;99.90;;;;;;2495723;23;20010;-73
2023/08/25 04:16:23;;;;;;;4.00;2.70;;;19.60;99.90;;;;;;2496222;23;20004;-73
2023/08/25 04:17:24;;;;;;;3.30;2.85;;;19.60;99.90;;;;;;2495222;23;20011;-73
2023/08/25 04:18:25;;;;;;;5.30;2.40;;;19.50;99.90;;;;;;2495207;23;20437;-73
2023/08/25 04:19:26;;;;;;;3.72;2.55;;;19.50;99.90;;;;;;2495397;23;20018;-73
2023/08/25 04:20:26;;;;;;;4.85;2.95;;;19.50;99.90;;;;;;2495578;23;20007;-73
2023/08/25 04:21:27;;;;;;;3.33;3.00;;;19.50;99.90;;;;;;2483374;23;20019;-73
2023/08/25 04:22:27;;;;;;;4.97;3.50;;;19.50;99.90;;;;;;2482212;23;20344;-73
2023/08/25 04:23:28;;;;;;;4.40;3.05;;;19.50;99.90;;;;;;2495392;23;20011;-73
2023/08/25 04:24:29;;;;;;;3.35;2.92;;;19.50;99.90;;;;;;2496424;23;20436;-73
2023/08/25 04:25:29;;;;;;;5.35;2.78;;;19.50;99.90;;;;;;2495224;23;20125;-73
2023/08/25 04:26:30;;;;;;;6.10;2.95;;;19.50;99.90;;;;;;2496101;23;20086;-73
2023/08/25 04:27:31;;;;;;;2.70;2.50;;;19.50;99.90;;;;;;2496116;23;20018;-73
2023/08/25 04:28:31;;;;;;;3.85;2.97;;;19.50;99.90;;;;;;2496208;23;20433;-73
2023/08/25 04:29:32;;;;;;;4.43;2.30;;;19.40;99.90;;;;;;2495695;23;20049;-73
2023/08/25 04:30:32;;;;;;;3.60;2.92;;;19.40;99.90;;;;;;2495780;23;20082;-73
2023/08/25 04:31:33;;;;;;;3.70;2.78;;;19.40;99.90;;;;;;2495149;23;20007;-73
2023/08/25 04:32:33;;;;;;;4.85;2.38;;;19.40;99.90;;;;;;2482677;23;20004;-73
2023/08/25 04:33:34;;;;;;;4.38;2.90;;;19.40;99.90;;;;;;2483257;23;20068;-73
2023/08/25 04:34:34;;;;;;;5.05;3.20;;;19.40;99.90;;;;;;2494274;23;20090;-73
2023/08/25 04:35:36;;;;;;;4.72;2.90;;;19.40;99.90;;;;;;2495081;23;20003;-73
2023/08/25 04:36:39;;;;;;;4.50;2.75;;;19.40;99.90;;;;;;2495230;23;20025;-73
2023/08/25 04:37:41;;;;;;;3.88;2.95;;;19.40;99.90;;;;;;2495958;23;20003;-73
2023/08/25 04:38:42;;;;;;;5.50;3.13;;;19.40;99.90;;;;;;2483370;23;20008;-73
2023/08/25 04:39:42;;;;;;;3.95;2.78;;;19.40;99.90;;;;;;2483523;23;20524;-73
2023/08/25 04:40:43;;;;;;;3.85;2.97;;;19.40;99.90;;;;;;2496111;23;20019;-73
2023/08/25 04:41:43;;;;;;;6.57;3.08;;;19.40;99.90;;;;;;2495684;23;20014;-73
2023/08/25 04:42:44;;;;;;;7.00;3.42;;;19.40;99.90;;;;;;2496218;23;20010;-73
2023/08/25 04:43:45;;;;;;;4.28;2.88;;;19.40;99.90;;;;;;2496513;23;20413;-73
2023/08/25 04:44:47;;;;;;;3.80;3.40;;;19.40;99.90;;;;;;2496431;23;20007;-73
2023/08/25 04:45:47;;;;;;;4.38;3.38;;;19.40;99.90;;;;;;2496966;23;20010;-73
2023/08/25 04:46:48;;;;;;;5.57;3.03;;;19.30;99.90;;;;;;2496540;23;20027;-73
2023/08/25 04:47:48;;;;;;;3.53;3.22;;;19.30;99.90;;;;;;2496129;23;20477;-73
2023/08/25 04:48:49;;;;;;;4.18;3.78;;;19.40;99.90;;;;;;2496443;23;20011;-73
2023/08/25 04:49:49;;;;;;;5.82;3.22;;;19.30;99.90;;;;;;2496090;23;20038;-73
2023/08/25 04:50:50;;;;;;;5.93;3.10;;;19.30;99.90;;;;;;2496298;23;20008;-73
2023/08/25 04:51:51;;;;;;;5.75;4.00;;;19.30;99.90;;;;;;2496585;23;20007;-73
2023/08/25 04:52:51;;;;;;;3.80;3.13;;;19.30;99.90;;;;;;2495560;23;20336;-73
2023/08/25 04:53:52;;;;;;;3.53;3.22;;;19.30;99.90;;;;;;2496531;23;20027;-73
2023/08/25 04:54:52;;;;;;;4.15;3.03;;;19.30;99.90;;;;;;2495613;23;20031;-73
2023/08/25 04:55:53;;;;;;;3.50;3.00;;;19.30;99.90;;;;;;2496467;23;20003;-73
2023/08/25 04:56:53;;;;;;;4.28;2.90;;;19.30;99.90;;;;;;2496578;23;20011;-73
2023/08/25 04:57:55;;;;;;;6.60;3.70;;;19.30;99.90;;;;;;2495121;23;20745;-73
2023/08/25 04:58:56;;;;;;;6.72;3.20;;;19.30;99.90;;;;;;2495844;23;20075;-73
2023/08/25 04:59:57;;;;;;;5.28;3.22;;;19.30;99.90;;;;;;2496072;23;20028;-73
2023/08/25 05:00:57;;;;;;;5.63;3.70;;;19.30;99.90;;;;;;2496344;23;20022;-73
2023/08/25 05:01:58;;;;;;;6.35;3.53;;;19.30;99.90;;;;;;2483927;23;20012;-73
2023/08/25 05:02:58;;;;;;;8.90;4.28;;;19.30;99.90;;;;;;2483130;23;20095;-73
2023/08/25 05:03:59;;;;;;;5.28;4.03;;;19.30;99.90;;;;;;2496089;23;20672;-73
2023/08/25 05:05:02;;;;;;;6.75;3.75;;;19.30;99.90;;;;;;2495828;23;20059;-73
2023/08/25 05:06:02;;;;;;;13.25;4.72;;;19.30;99.90;;;;;;2495441;23;20340;-73
2023/08/25 05:07:03;;;;;;;6.05;4.07;;;19.30;99.90;;;;;;2496178;23;20007;-73
2023/08/25 05:08:04;;;;;;;5.00;3.28;;;19.30;99.90;;;;;;2496079;23;20026;-73
2023/08/25 05:09:04;;;;;;;5.75;4.32;;;19.40;99.90;;;;;;2496451;23;20014;-73
2023/08/25 05:10:06;;;;;;;5.85;4.28;;;19.40;99.90;;;;;;2496820;23;20037;-73
2023/08/25 05:11:07;;;;;;;5.70;4.20;;;19.40;99.90;;;;;;2495929;23;20440;-73
2023/08/25 05:12:08;;;;;;;6.38;4.00;;;19.40;99.90;;;;;;2495086;23;20423;-73
2023/08/25 05:13:09;;;;;;;5.95;4.28;;;19.40;99.90;;;;;;2496835;23;20207;-73
2023/08/25 05:14:09;;;;;;;5.07;4.57;;;19.40;99.90;;;;;;2496237;23;20012;-73
2023/08/25 05:15:10;;;;;;;4.20;3.80;;;19.40;99.90;;;;;;2496849;23;19999;-73
2023/08/25 05:16:12;;;;;;;4.65;4.20;;;19.40;99.90;;;;;;2483853;23;20034;-73
2023/08/25 05:17:12;;;;;;;4.97;3.90;;;19.40;99.90;;;;;;2471889;23;20512;-73
2023/08/25 05:18:13;;;;;;;5.13;4.13;;;19.40;99.90;;;;;;2482952;23;20110;-73
2023/08/25 05:19:13;;;;;;;6.93;4.78;;;19.40;99.90;;;;;;2495379;23;20003;-73
2023/08/25 05:20:20;;;;;;;7.68;4.05;;;19.40;99.90;;;;;;2496563;23;20037;-73
2023/08/25 05:21:21;;;;;;;5.25;4.35;;;19.50;99.90;;;;;;2496491;23;20428;-73